createdAt,value
2023-03-06T00:03:42.188Z,25.90
2023-03-06T00:10:45.866Z,24.00
2023-03-06T00:17:50.473Z,24.50
2023-03-06T00:24:54.247Z,27.70
2023-03-06T00:32:00.778Z,28.50
2023-03-06T00:39:03.711Z,40.60
2023-03-06T00:46:07.503Z,53.20
2023-03-06T00:53:12.180Z,37.00
2023-03-06T01:00:15.890Z,32.80
2023-03-06T01:07:19.513Z,27.30
2023-03-06T01:14:23.124Z,27.60
2023-03-06T01:21:27.773Z,25.80
2023-03-06T01:28:31.272Z,25.60
2023-03-06T01:35:34.977Z,22.90
2023-03-06T01:42:39.601Z,23.80
2023-03-06T01:49:55.149Z,22.50
2023-03-06T01:56:59.795Z,18.80
2023-03-06T02:03:52.645Z,21.70
2023-03-06T02:10:56.377Z,18.30
2023-03-06T02:18:02.194Z,18.00
2023-03-06T02:25:19.134Z,17.60
2023-03-06T02:32:22.774Z,16.20
2023-03-06T02:39:28.830Z,15.50
2023-03-06T02:46:35.513Z,19.60
2023-03-06T02:53:41.020Z,21.10
2023-03-06T03:00:44.842Z,23.40
2023-03-06T03:14:38.798Z,20.20
2023-03-06T03:21:42.356Z,19.80
2023-03-06T03:28:50.680Z,17.80
2023-03-06T03:35:54.241Z,17.80
2023-03-06T03:42:58.047Z,17.90
2023-03-06T03:50:01.808Z,22.40
2023-03-06T03:57:05.593Z,21.90
2023-03-06T04:04:09.120Z,17.50
2023-03-06T04:11:13.173Z,22.60
2023-03-06T04:18:16.693Z,25.10
2023-03-06T04:25:20.444Z,18.70
2023-03-06T04:32:24.237Z,22.40
2023-03-06T04:39:27.913Z,18.90
2023-03-06T04:46:24.158Z,26.10
2023-03-06T04:53:26.878Z,31.70
2023-03-06T05:00:31.587Z,31.20
2023-03-06T05:07:41.607Z,40.30
2023-03-06T05:14:47.664Z,39.20
2023-03-06T05:21:52.458Z,41.40
2023-03-06T05:28:49.701Z,42.20
2023-03-06T05:35:53.312Z,42.00
2023-03-06T05:42:58.831Z,42.20
2023-03-06T05:50:02.781Z,44.30
2023-03-06T05:56:57.254Z,38.20
2023-03-06T06:03:20.523Z,41.50
2023-03-06T06:09:42.625Z,35.40
2023-03-06T06:16:51.906Z,38.70
2023-03-06T06:23:55.459Z,32.40
2023-03-06T06:30:59.095Z,34.00
2023-03-06T06:38:02.694Z,25.40
2023-03-06T06:45:07.540Z,24.00
2023-03-06T06:52:10.699Z,23.50
2023-03-06T06:59:17.014Z,22.30
2023-03-06T07:05:46.129Z,22.90
2023-03-06T07:12:51.808Z,19.70
2023-03-06T07:19:38.007Z,20.30
2023-03-06T07:26:22.588Z,20.60
2023-03-06T07:33:26.808Z,20.00
2023-03-06T07:40:31.589Z,17.50
2023-03-06T07:47:35.201Z,17.10
2023-03-06T07:54:38.665Z,15.40
2023-03-06T08:01:36.158Z,14.50
2023-03-06T08:08:38.536Z,14.00
2023-03-06T08:15:42.083Z,14.30
2023-03-06T08:22:48.298Z,15.40
2023-03-06T08:29:51.922Z,16.00
2023-03-06T08:36:45.928Z,15.70
2023-03-06T08:43:40.530Z,14.20
2023-03-06T08:50:44.241Z,14.80
2023-03-06T08:57:49.496Z,16.40
2023-03-06T09:04:14.251Z,13.90
2023-03-06T09:11:17.554Z,13.50
2023-03-06T09:18:21.336Z,12.70
2023-03-06T09:25:01.075Z,12.40
2023-03-06T09:31:55.702Z,13.80
2023-03-06T09:39:00.468Z,13.40
2023-03-06T09:46:06.161Z,13.00
2023-03-06T09:53:22.987Z,12.50
2023-03-06T10:00:23.171Z,11.70
2023-03-06T10:07:38.862Z,11.70
2023-03-06T10:14:38.095Z,12.30
2023-03-06T10:21:52.752Z,10.60
2023-03-06T10:28:43.389Z,9.70
2023-03-06T10:35:18.085Z,10.10
2023-03-06T10:41:46.347Z,8.90
2023-03-06T10:47:53.323Z,9.10
2023-03-06T10:54:17.674Z,9.40
2023-03-06T11:01:26.112Z,9.20
2023-03-06T11:08:34.685Z,8.20
2023-03-06T11:15:20.233Z,9.00
2023-03-06T11:22:19.516Z,9.50
2023-03-06T11:29:01.966Z,8.70
2023-03-06T11:35:35.336Z,9.10
2023-03-06T11:42:11.238Z,8.50
2023-03-06T11:48:52.632Z,7.40
2023-03-06T11:54:55.862Z,7.10
2023-03-06T12:01:51.294Z,7.90
2023-03-06T12:09:04.280Z,7.70
2023-03-06T12:16:27.873Z,7.10
2023-03-06T12:23:15.789Z,7.50
2023-03-06T12:30:08.324Z,6.30
2023-03-06T12:37:17.212Z,7.50
2023-03-06T12:44:26.071Z,7.20
2023-03-06T12:51:06.801Z,6.00
2023-03-06T12:57:55.564Z,4.40
2023-03-06T13:05:01.582Z,4.90
2023-03-06T13:11:45.344Z,5.40
2023-03-06T13:19:03.984Z,5.00
2023-03-06T13:25:49.796Z,6.40
2023-03-06T13:32:45.601Z,5.20
2023-03-06T13:39:37.548Z,4.70
2023-03-06T13:46:06.072Z,6.30
2023-03-06T13:52:58.282Z,5.60
2023-03-06T13:58:51.714Z,5.40
2023-03-06T14:05:19.833Z,6.70
2023-03-06T14:12:23.075Z,8.30
2023-03-06T14:19:13.676Z,8.20
2023-03-06T14:25:59.136Z,8.60
2023-03-06T14:33:02.508Z,9.00
2023-03-06T14:39:00.846Z,7.20
2023-03-06T14:44:53.952Z,6.00
2023-03-06T14:51:39.983Z,7.70
2023-03-06T14:58:27.811Z,7.90
2023-03-06T15:05:28.396Z,7.10
2023-03-06T15:12:42.527Z,7.80
2023-03-06T15:19:03.466Z,7.70
2023-03-06T15:26:10.062Z,8.10
2023-03-06T15:32:53.125Z,9.30
2023-03-06T15:39:40.258Z,11.90
2023-03-06T15:46:26.688Z,13.20
2023-03-06T15:53:30.005Z,15.30
2023-03-06T16:00:26.694Z,12.70
2023-03-06T16:07:02.089Z,13.60
2023-03-06T16:13:55.352Z,12.20
2023-03-06T16:20:28.260Z,12.40
2023-03-06T16:27:36.336Z,11.50
2023-03-06T16:34:19.818Z,12.60
2023-03-06T16:41:23.143Z,13.00
2023-03-06T16:47:56.095Z,14.50
2023-03-06T16:54:31.175Z,16.00
2023-03-06T17:01:34.667Z,15.90
2023-03-06T17:08:07.800Z,14.60
2023-03-06T17:15:01.676Z,16.10
2023-03-06T17:21:28.751Z,13.90
2023-03-06T17:28:14.703Z,11.90
2023-03-06T17:34:56.117Z,8.00
2023-03-06T17:41:05.496Z,9.80
2023-03-06T17:47:41.984Z,10.40
2023-03-06T17:54:47.604Z,10.70
2023-03-06T18:01:03.653Z,11.40
2023-03-06T18:07:07.431Z,12.60
2023-03-06T18:13:42.876Z,13.90
2023-03-06T18:19:24.834Z,18.00
2023-03-06T18:25:29.571Z,21.40
2023-03-06T18:32:29.254Z,23.90
2023-03-06T18:39:09.778Z,26.90
2023-03-06T18:45:32.840Z,24.80
2023-03-06T18:51:53.828Z,24.30
2023-03-06T18:58:04.007Z,25.20
2023-03-06T19:04:57.649Z,24.30
2023-03-06T19:11:57.038Z,23.60
2023-03-06T19:18:29.356Z,24.30
2023-03-06T19:25:23.500Z,25.70
2023-03-06T19:31:50.915Z,24.70
2023-03-06T19:39:03.728Z,26.70
2023-03-06T19:45:59.225Z,27.80
2023-03-06T19:52:33.439Z,25.00
2023-03-06T19:59:38.009Z,26.00
2023-03-06T20:05:28.048Z,24.90
2023-03-06T20:12:31.807Z,23.30
2023-03-06T20:18:35.801Z,20.40
2023-03-06T20:25:11.914Z,18.90
2023-03-06T20:31:49.324Z,18.50
2023-03-06T20:38:34.479Z,17.40
2023-03-06T20:45:23.629Z,16.90
2023-03-06T20:52:04.703Z,17.40
2023-03-06T20:58:35.037Z,16.20
2023-03-06T21:05:38.096Z,15.30
2023-03-06T21:12:41.556Z,13.80
2023-03-06T21:19:15.685Z,13.20
2023-03-06T21:26:19.382Z,12.90
2023-03-06T21:33:04.431Z,14.10
2023-03-06T21:40:00.759Z,15.00
2023-03-06T21:47:06.560Z,15.80
2023-03-06T21:53:53.114Z,17.50
2023-03-06T22:00:38.303Z,15.90
2023-03-06T22:07:36.309Z,19.60
2023-03-06T22:14:40.174Z,22.20
2023-03-06T22:21:19.517Z,23.50
2023-03-06T22:28:06.528Z,27.80
2023-03-06T22:35:18.925Z,28.80
2023-03-06T22:42:06.153Z,31.80
2023-03-06T22:48:53.873Z,27.50
2023-03-06T22:55:58.283Z,28.70
2023-03-06T23:02:49.097Z,23.80
2023-03-06T23:09:52.752Z,26.80
2023-03-06T23:16:54.476Z,29.80
2023-03-06T23:23:48.589Z,29.70
2023-03-06T23:30:45.259Z,28.80
2023-03-06T23:37:48.790Z,28.30
2023-03-06T23:44:51.323Z,26.70
2023-03-06T23:51:39.412Z,26.00
2023-03-06T23:58:42.960Z,29.60
